createdAt,value
2022-10-13T00:00:33.674Z,1004.58
2022-10-13T00:05:33.599Z,1004.66
2022-10-13T00:10:33.538Z,1004.64
2022-10-13T00:15:33.466Z,1004.55
2022-10-13T00:20:33.406Z,1004.47
2022-10-13T00:25:33.333Z,1004.50
2022-10-13T00:30:33.276Z,1004.56
2022-10-13T00:35:33.200Z,1004.60
2022-10-13T00:40:33.140Z,1004.56
2022-10-13T00:45:33.066Z,1004.52
2022-10-13T00:50:33.007Z,1004.59
2022-10-13T00:55:32.934Z,1004.69
2022-10-13T01:00:32.950Z,1004.64
2022-10-13T01:05:32.800Z,1004.63
2022-10-13T01:10:32.739Z,1004.66
2022-10-13T01:15:32.668Z,1004.56
2022-10-13T01:20:32.606Z,1004.47
2022-10-13T01:25:32.532Z,1004.41
2022-10-13T01:30:32.475Z,1004.36
2022-10-13T01:35:32.400Z,1004.42
2022-10-13T01:40:32.339Z,1004.33
2022-10-13T01:45:32.264Z,1004.29
2022-10-13T01:50:32.207Z,1004.24
2022-10-13T01:55:32.141Z,1004.15
2022-10-13T02:00:32.132Z,1004.10
2022-10-13T02:05:31.999Z,1003.92
2022-10-13T02:10:31.939Z,1003.96
2022-10-13T02:15:31.864Z,1004.02
2022-10-13T02:20:31.806Z,1003.96
2022-10-13T02:25:31.731Z,1003.97
2022-10-13T02:30:31.671Z,1004.04
2022-10-13T02:35:31.596Z,1003.96
2022-10-13T02:40:31.540Z,1003.87
2022-10-13T02:45:31.462Z,1003.80
2022-10-13T02:50:31.405Z,1003.80
2022-10-13T02:55:31.330Z,1003.79
2022-10-13T03:00:31.310Z,1003.79
2022-10-13T03:05:31.195Z,1003.76
2022-10-13T03:10:31.137Z,1003.79
2022-10-13T03:15:31.062Z,1003.76
2022-10-13T03:20:31.009Z,1003.74
2022-10-13T03:25:30.930Z,1003.75
2022-10-13T03:30:30.864Z,1003.73
2022-10-13T03:35:30.806Z,1003.74
2022-10-13T03:40:30.728Z,1003.65
2022-10-13T03:45:30.672Z,1003.62
2022-10-13T03:50:30.598Z,1003.60
2022-10-13T03:55:30.540Z,1003.57
2022-10-13T04:00:30.464Z,1003.64
2022-10-13T04:05:30.406Z,1003.58
2022-10-13T04:10:30.330Z,1003.49
2022-10-13T04:15:30.271Z,1003.45
2022-10-13T04:20:30.226Z,1003.41
2022-10-13T04:25:30.140Z,1003.42
2022-10-13T04:30:30.064Z,1003.42
2022-10-13T04:35:30.003Z,1003.36
2022-10-13T04:40:29.932Z,1003.31
2022-10-13T04:45:29.869Z,1003.29
2022-10-13T04:50:29.796Z,1003.24
2022-10-13T04:55:29.739Z,1003.27
2022-10-13T05:00:29.738Z,1003.20
2022-10-13T05:05:29.602Z,1003.26
2022-10-13T05:10:33.936Z,1003.29
2022-10-13T05:15:29.471Z,1003.26
2022-10-13T05:20:29.397Z,1003.29
2022-10-13T05:25:33.678Z,1003.30
2022-10-13T05:30:29.262Z,1003.36
2022-10-13T05:35:29.202Z,1003.41
2022-10-13T05:40:29.131Z,1003.45
2022-10-13T05:45:29.069Z,1003.47
2022-10-13T05:50:28.997Z,1003.54
2022-10-13T05:55:28.936Z,1003.61
2022-10-13T06:00:28.863Z,1003.62
2022-10-13T06:05:28.803Z,1003.62
2022-10-13T06:10:28.728Z,1003.68
2022-10-13T06:15:28.673Z,1003.69
2022-10-13T06:20:28.599Z,1003.64
2022-10-13T06:25:28.538Z,1003.58
2022-10-13T06:30:28.468Z,1003.56
2022-10-13T06:35:28.402Z,1003.52
2022-10-13T06:40:28.334Z,1003.50
2022-10-13T06:45:28.273Z,1003.46
2022-10-13T06:50:28.201Z,1003.38
2022-10-13T06:55:28.140Z,1003.38
2022-10-13T07:00:28.099Z,1003.40
2022-10-13T07:05:28.022Z,1003.37
2022-10-13T07:10:27.944Z,1003.33
2022-10-13T07:15:27.875Z,1003.22
2022-10-13T07:20:27.802Z,1003.30
2022-10-13T07:25:27.745Z,1003.15
2022-10-13T07:30:27.666Z,1003.20
2022-10-13T07:35:30.690Z,1003.20
2022-10-13T07:40:27.532Z,1003.23
2022-10-13T07:45:27.474Z,1003.17
2022-10-13T07:50:27.404Z,1003.11
2022-10-13T07:55:27.341Z,1003.04
2022-10-13T08:00:27.267Z,1003.03
2022-10-13T08:05:27.210Z,1002.91
2022-10-13T08:10:27.134Z,1002.86
2022-10-13T08:15:27.078Z,1002.76
2022-10-13T08:20:36.187Z,1002.77
2022-10-13T08:25:27.975Z,1002.74
2022-10-13T08:30:26.974Z,1002.63
2022-10-13T08:35:28.430Z,1002.67
2022-10-13T08:40:26.737Z,1002.72
2022-10-13T08:45:40.969Z,1002.70
2022-10-13T08:50:27.626Z,1002.74
2022-10-13T08:55:26.545Z,1002.71
2022-10-13T09:00:26.462Z,1002.59
2022-10-13T09:05:26.399Z,1002.46
2022-10-13T09:10:26.327Z,1002.48
2022-10-13T09:15:26.268Z,1002.34
2022-10-13T09:20:26.193Z,1002.31
2022-10-13T09:25:26.134Z,1002.32
2022-10-13T09:30:26.060Z,1002.48
2022-10-13T09:35:25.999Z,1002.43
2022-10-13T09:40:25.928Z,1002.44
2022-10-13T09:45:25.867Z,1002.44
2022-10-13T09:50:25.793Z,1002.37
2022-10-13T09:55:29.921Z,1002.40
2022-10-13T10:00:25.661Z,1002.36
2022-10-13T10:05:25.602Z,1002.34
2022-10-13T10:10:25.536Z,1002.36
2022-10-13T10:15:25.470Z,1002.31
2022-10-13T10:20:25.395Z,1002.26
2022-10-13T10:25:25.340Z,1002.17
2022-10-13T10:30:25.263Z,1002.22
2022-10-13T10:35:25.203Z,1002.12
2022-10-13T10:40:25.132Z,1002.13
2022-10-13T10:45:25.071Z,1002.08
2022-10-13T10:50:24.994Z,1002.07
2022-10-13T10:55:24.934Z,1001.98
2022-10-13T11:00:25.016Z,1001.99
2022-10-13T11:05:24.801Z,1001.90
2022-10-13T11:10:24.727Z,1001.89
2022-10-13T11:15:24.668Z,1001.78
2022-10-13T11:20:24.598Z,1001.75
2022-10-13T11:25:24.532Z,1001.74
2022-10-13T11:30:24.611Z,1001.66
2022-10-13T11:35:24.398Z,1001.70
2022-10-13T11:40:24.327Z,1001.65
2022-10-13T11:45:24.270Z,1001.52
2022-10-13T11:50:24.189Z,1001.41
2022-10-13T11:55:24.129Z,1001.32
2022-10-13T12:00:24.056Z,1001.34
2022-10-13T12:05:23.996Z,1001.31
2022-10-13T12:10:23.921Z,1001.19
2022-10-13T12:15:23.860Z,1001.19
2022-10-13T12:20:23.786Z,1001.04
2022-10-13T12:25:23.725Z,1001.02
2022-10-13T12:30:23.656Z,1000.94
2022-10-13T12:35:23.590Z,1000.93
2022-10-13T12:40:23.537Z,1000.83
2022-10-13T12:45:23.458Z,1000.83
2022-10-13T12:50:23.384Z,1000.81
2022-10-13T12:55:23.323Z,1000.75
2022-10-13T13:00:23.246Z,1000.81
2022-10-13T13:05:23.186Z,1000.77
2022-10-13T13:10:23.113Z,1000.75
2022-10-13T13:15:23.052Z,1000.78
2022-10-13T13:20:22.980Z,1000.76
2022-10-13T13:25:22.924Z,1000.85
2022-10-13T13:30:22.844Z,1000.80
2022-10-13T13:35:22.782Z,1000.76
2022-10-13T13:40:22.706Z,1000.65
2022-10-13T13:45:22.651Z,1000.63
2022-10-13T13:50:22.575Z,1000.57
2022-10-13T13:55:22.515Z,1000.49
2022-10-13T14:00:22.441Z,1000.44
2022-10-13T14:05:22.381Z,1000.39
2022-10-13T14:10:22.309Z,1000.45
2022-10-13T14:15:25.819Z,1000.40
2022-10-13T14:20:22.174Z,1000.31
2022-10-13T14:25:22.117Z,1000.29
2022-10-13T14:30:22.041Z,1000.25
2022-10-13T14:35:21.981Z,1000.27
2022-10-13T14:40:22.059Z,1000.26
2022-10-13T14:45:21.849Z,1000.27
2022-10-13T14:50:21.776Z,1000.27
2022-10-13T14:55:21.716Z,1000.28
2022-10-13T15:00:21.660Z,1000.32
2022-10-13T15:05:21.583Z,1000.38
2022-10-13T15:10:21.506Z,1000.42
2022-10-13T15:15:21.452Z,1000.40
2022-10-13T15:20:21.377Z,1000.39
2022-10-13T15:25:21.317Z,1000.38
2022-10-13T15:30:21.242Z,1000.36
2022-10-13T15:35:21.184Z,1000.36
2022-10-13T15:40:21.110Z,1000.33
2022-10-13T15:45:21.048Z,1000.35
2022-10-13T15:50:20.977Z,1000.39
2022-10-13T15:55:20.915Z,1000.39
2022-10-13T16:00:20.842Z,1000.38
2022-10-13T16:05:20.785Z,1000.44
2022-10-13T16:10:20.707Z,1000.48
2022-10-13T16:15:20.651Z,1000.52
2022-10-13T16:20:20.575Z,1000.54
2022-10-13T16:25:20.517Z,1000.48
2022-10-13T16:30:20.445Z,1000.45
2022-10-13T16:35:20.385Z,1000.48
2022-10-13T16:40:20.313Z,1000.52
2022-10-13T16:45:35.475Z,1000.58
2022-10-13T16:50:21.208Z,1000.51
2022-10-13T16:55:20.121Z,1000.53
2022-10-13T17:00:20.158Z,1000.56
2022-10-13T17:05:19.988Z,1000.60
2022-10-13T17:10:19.915Z,1000.62
2022-10-13T17:15:19.859Z,1000.56
2022-10-13T17:20:19.780Z,1000.53
2022-10-13T17:25:19.720Z,1000.54
2022-10-13T17:30:19.647Z,1000.56
2022-10-13T17:35:19.598Z,1000.55
2022-10-13T17:40:19.747Z,1000.56
2022-10-13T17:45:19.452Z,1000.59
2022-10-13T17:50:19.380Z,1000.52
2022-10-13T17:55:19.313Z,1000.52
2022-10-13T18:00:19.248Z,1000.51
2022-10-13T18:05:19.170Z,1000.46
2022-10-13T18:10:19.109Z,1000.44
2022-10-13T18:15:19.033Z,1000.43
2022-10-13T18:20:18.974Z,1000.42
2022-10-13T18:25:18.898Z,1000.49
2022-10-13T18:30:22.348Z,1000.46
2022-10-13T18:35:18.766Z,1000.45
2022-10-13T18:40:18.711Z,1000.51
2022-10-13T18:45:18.622Z,1000.50
2022-10-13T18:50:18.565Z,1000.47
2022-10-13T18:55:18.487Z,1000.42
2022-10-13T19:00:18.424Z,1000.36
2022-10-13T19:05:18.351Z,1000.38
2022-10-13T19:10:18.289Z,1000.42
2022-10-13T19:15:18.213Z,1000.46
2022-10-13T19:20:18.152Z,1000.39
2022-10-13T19:25:18.076Z,1000.37
2022-10-13T19:30:18.017Z,1000.27
2022-10-13T19:35:17.945Z,1000.28
2022-10-13T19:40:17.887Z,1000.32
2022-10-13T19:45:17.817Z,1000.24
2022-10-13T19:50:17.756Z,1000.29
2022-10-13T19:55:17.683Z,1000.28
2022-10-13T20:00:17.627Z,1000.24
2022-10-13T20:05:20.873Z,1000.25
2022-10-13T20:10:17.495Z,1000.26
2022-10-13T20:15:17.424Z,1000.23
2022-10-13T20:20:22.134Z,1000.19
2022-10-13T20:25:17.292Z,1000.20
2022-10-13T20:30:17.240Z,1000.13
2022-10-13T20:35:17.165Z,1000.13
2022-10-13T20:40:17.105Z,1000.14
2022-10-13T20:45:17.031Z,1000.17
2022-10-13T20:50:16.980Z,1000.21
2022-10-13T20:55:16.902Z,1000.17
2022-10-13T21:00:16.871Z,1000.16
2022-10-13T21:05:16.768Z,1000.17
2022-10-13T21:10:16.713Z,1000.20
2022-10-13T21:15:16.635Z,1000.23
2022-10-13T21:20:16.577Z,1000.24
2022-10-13T21:25:16.503Z,1000.31
2022-10-13T21:30:16.444Z,1000.31
2022-10-13T21:35:16.377Z,1000.28
2022-10-13T21:40:16.312Z,1000.27
2022-10-13T21:45:16.238Z,1000.22
2022-10-13T21:50:16.177Z,1000.19
2022-10-13T21:55:16.123Z,1000.14
2022-10-13T22:00:16.046Z,1000.16
2022-10-13T22:05:15.982Z,1000.16
2022-10-13T22:10:15.912Z,1000.14
2022-10-13T22:15:15.840Z,1000.20
2022-10-13T22:20:15.778Z,1000.10
2022-10-13T22:25:15.706Z,1000.03
2022-10-13T22:30:15.645Z,1000.01
2022-10-13T22:35:15.571Z,999.99
2022-10-13T22:40:15.511Z,999.93
2022-10-13T22:45:15.435Z,999.88
2022-10-13T22:50:15.373Z,999.85
2022-10-13T22:55:15.299Z,999.81
2022-10-13T23:00:15.241Z,999.82
2022-10-13T23:05:15.166Z,999.81
2022-10-13T23:10:15.106Z,999.80
2022-10-13T23:15:15.030Z,999.79
2022-10-13T23:20:14.970Z,999.80
2022-10-13T23:25:14.899Z,999.72
2022-10-13T23:30:14.838Z,999.72
2022-10-13T23:35:14.763Z,999.68
2022-10-13T23:40:14.702Z,999.70
2022-10-13T23:45:14.631Z,999.69
2022-10-13T23:50:14.573Z,999.69
2022-10-13T23:55:14.498Z,999.70
